Time;durP1;ratioP1;P1;durP2;ratioP2;P2;SDS_P1;SDS_P2;PMS_P1;PMS_P2;Temp;Humidity;BMP_temperature;BMP_pressure;BME280_temperature;BME280_humidity;BME280_pressure;Samples;Min_cycle;Max_cycle;Signal;HPM_P1;HPM_P2
2023/07/02 00:00:59;;;;;;;9.65;2.42;;;16.60;99.90;;;;;;5134713;27;20039;-48
2023/07/02 00:03:25;;;;;;;7.40;2.25;;;16.60;99.90;;;;;;5134912;27;20043;-48
2023/07/02 00:05:54;;;;;;;8.18;2.40;;;16.60;99.90;;;;;;5134793;27;20484;-48
2023/07/02 00:08:21;;;;;;;7.63;2.78;;;16.50;99.90;;;;;;5134478;27;20491;-47
2023/07/02 00:10:47;;;;;;;7.70;2.05;;;16.50;99.90;;;;;;5134682;27;20035;-48
2023/07/02 00:13:12;;;;;;;7.03;2.55;;;16.50;99.90;;;;;;5134726;27;20110;-48
2023/07/02 00:15:38;;;;;;;7.88;2.55;;;16.50;99.90;;;;;;5134661;27;20543;-49
2023/07/02 00:18:04;;;;;;;8.70;2.75;;;16.50;99.90;;;;;;5134558;27;20046;-48
2023/07/02 00:20:34;;;;;;;10.13;3.20;;;16.40;99.90;;;;;;5134530;27;20039;-47
2023/07/02 00:23:00;;;;;;;9.77;2.78;;;16.40;99.90;;;;;;5116276;28;20128;-48
2023/07/02 00:25:26;;;;;;;8.18;2.50;;;16.40;99.90;;;;;;5134596;28;20035;-48
2023/07/02 00:27:52;;;;;;;7.30;2.63;;;16.30;99.90;;;;;;5134499;28;20047;-48
2023/07/02 00:30:18;;;;;;;10.47;2.93;;;16.30;99.90;;;;;;5099299;28;20126;-47
2023/07/02 00:32:43;;;;;;;8.95;3.15;;;16.30;99.90;;;;;;5116446;28;20273;-47
2023/07/02 00:35:09;;;;;;;8.02;2.30;;;16.30;99.90;;;;;;5134380;28;20035;-48
2023/07/02 00:37:34;;;;;;;7.33;2.83;;;16.20;99.90;;;;;;5134205;28;20054;-48
2023/07/02 00:40:00;;;;;;;7.00;2.20;;;16.20;99.90;;;;;;5134317;28;20304;-48
2023/07/02 00:42:29;;;;;;;10.35;2.90;;;16.20;99.90;;;;;;5116638;28;20043;-47
2023/07/02 00:44:56;;;;;;;13.20;2.88;;;16.20;99.90;;;;;;5116273;28;20544;-49
2023/07/02 00:47:23;;;;;;;8.70;2.65;;;16.20;99.90;;;;;;5134227;28;20089;-47
2023/07/02 00:49:49;;;;;;;12.13;2.80;;;16.20;99.90;;;;;;5134183;28;20046;-48
2023/07/02 00:52:15;;;;;;;8.32;2.88;;;16.20;99.90;;;;;;5115824;28;20122;-48
2023/07/02 00:54:41;;;;;;;8.25;2.95;;;16.10;99.90;;;;;;5134288;28;20143;-47
2023/07/02 00:57:07;;;;;;;11.57;3.25;;;16.10;99.90;;;;;;5136036;27;20491;-49
2023/07/02 00:59:35;;;;;;;7.18;2.78;;;16.10;99.90;;;;;;5120054;27;20050;-48
2023/07/02 01:02:01;;;;;;;15.52;3.70;;;16.10;99.90;;;;;;5119872;27;20392;-49
2023/07/02 01:04:27;;;;;;;11.52;3.42;;;16.10;99.90;;;;;;5137957;27;20058;-48
2023/07/02 01:06:59;;;;;;;10.52;3.15;;;16.10;99.90;;;;;;5119751;27;20043;-50
2023/07/02 01:09:26;;;;;;;8.85;3.20;;;16.10;99.90;;;;;;5138153;27;20130;-47
2023/07/02 01:11:58;;;;;;;8.18;3.28;;;16.10;99.90;;;;;;5138028;27;20043;-48
2023/07/02 01:14:32;;;;;;;9.25;2.83;;;16.10;99.90;;;;;;5138173;27;20046;-47
2023/07/02 01:16:59;;;;;;;8.85;3.30;;;16.00;99.90;;;;;;5137959;27;20087;-48
2023/07/02 01:19:45;;;;;;;8.80;2.67;;;16.00;99.90;;;;;;5137656;27;20105;-48
2023/07/02 01:22:12;;;;;;;9.02;2.83;;;16.00;99.90;;;;;;5120269;27;20047;-47
2023/07/02 01:24:41;;;;;;;7.88;3.05;;;16.00;99.90;;;;;;5137829;27;20087;-48
2023/07/02 01:27:07;;;;;;;12.55;3.40;;;16.00;99.90;;;;;;5137765;27;20043;-48
2023/07/02 01:29:36;;;;;;;10.90;2.90;;;16.00;99.90;;;;;;5137684;27;20062;-48
2023/07/02 01:32:02;;;;;;;10.38;2.95;;;16.00;99.90;;;;;;5120005;27;20130;-48
2023/07/02 01:34:28;;;;;;;10.35;2.67;;;15.90;99.90;;;;;;5137617;27;20054;-48
2023/07/02 01:36:53;;;;;;;12.02;3.42;;;16.00;99.90;;;;;;5137762;27;20043;-48
2023/07/02 01:39:19;;;;;;;10.60;2.63;;;15.90;99.90;;;;;;5137619;27;20336;-47
2023/07/02 01:41:49;;;;;;;10.45;3.28;;;15.90;99.90;;;;;;5137439;27;20047;-47
2023/07/02 01:44:15;;;;;;;11.82;4.28;;;15.90;99.90;;;;;;5137213;27;20043;-48
2023/07/02 01:46:41;;;;;;;10.27;3.00;;;15.80;99.90;;;;;;5101953;27;20058;-48
2023/07/02 01:49:06;;;;;;;11.85;3.28;;;15.80;99.90;;;;;;5137471;27;20058;-48
2023/07/02 01:51:33;;;;;;;10.80;3.25;;;15.80;99.90;;;;;;5137161;27;20049;-46
2023/07/02 01:53:59;;;;;;;18.00;3.95;;;15.80;99.90;;;;;;5137103;27;20047;-48
2023/07/02 01:56:24;;;;;;;8.93;3.05;;;15.80;99.90;;;;;;5118946;27;20049;-47
2023/07/02 01:58:50;;;;;;;13.85;3.67;;;15.70;99.90;;;;;;5136959;27;20050;-49
2023/07/02 02:01:16;;;;;;;7.93;2.63;;;15.70;99.90;;;;;;5137071;27;20053;-48
2023/07/02 02:03:41;;;;;;;9.63;2.83;;;15.70;99.90;;;;;;5137078;27;20316;-48
2023/07/02 02:06:07;;;;;;;9.45;3.30;;;15.70;99.90;;;;;;5118808;27;20341;-48
2023/07/02 02:08:33;;;;;;;10.83;3.13;;;15.60;99.90;;;;;;5136976;27;20043;-48
2023/07/02 02:11:00;;;;;;;11.87;3.30;;;15.70;99.90;;;;;;5136842;27;20283;-47
2023/07/02 02:13:26;;;;;;;8.60;3.22;;;15.70;99.90;;;;;;5136591;27;20078;-47
2023/07/02 02:15:52;;;;;;;11.43;3.40;;;15.60;99.90;;;;;;5118846;27;20499;-47
2023/07/02 02:18:17;;;;;;;9.13;3.40;;;15.60;99.90;;;;;;5136807;27;20502;-47
2023/07/02 02:20:43;;;;;;;11.40;3.20;;;15.60;99.90;;;;;;5118453;27;20054;-47
2023/07/02 02:23:08;;;;;;;11.47;3.47;;;15.60;99.90;;;;;;5136693;27;20292;-48
2023/07/02 02:25:34;;;;;;;10.10;3.00;;;15.60;99.90;;;;;;5118154;27;20125;-48
2023/07/02 02:28:00;;;;;;;12.95;3.65;;;15.50;99.90;;;;;;5136417;27;20082;-48
2023/07/02 02:30:25;;;;;;;15.63;4.10;;;15.50;99.90;;;;;;5136545;27;20049;-48
2023/07/02 02:32:51;;;;;;;11.83;4.13;;;15.50;99.90;;;;;;5136513;27;20288;-48
2023/07/02 02:35:17;;;;;;;13.00;3.63;;;15.50;99.90;;;;;;5118136;27;20058;-48
2023/07/02 02:37:42;;;;;;;11.88;3.38;;;15.50;99.90;;;;;;5136251;27;20047;-48
2023/07/02 02:40:11;;;;;;;13.02;4.22;;;15.50;99.90;;;;;;5136240;27;20506;-47
2023/07/02 02:42:38;;;;;;;11.80;3.25;;;15.50;99.90;;;;;;5136182;27;20051;-48
2023/07/02 02:45:04;;;;;;;11.57;3.35;;;15.40;99.90;;;;;;5136065;27;20387;-47
2023/07/02 02:47:29;;;;;;;11.90;3.08;;;15.40;99.90;;;;;;5136247;27;20471;-47
2023/07/02 02:49:55;;;;;;;12.63;3.77;;;15.40;99.90;;;;;;5136207;27;20121;-48
2023/07/02 02:52:21;;;;;;;10.88;3.20;;;15.40;99.90;;;;;;5117675;27;20043;-47
2023/07/02 02:54:46;;;;;;;11.20;3.47;;;15.40;99.90;;;;;;5136126;27;20384;-47
2023/07/02 02:57:13;;;;;;;10.98;4.03;;;15.40;99.90;;;;;;5135735;27;20039;-48
2023/07/02 02:59:39;;;;;;;10.27;2.97;;;15.40;99.90;;;;;;5135726;27;20047;-48
2023/07/02 03:02:04;;;;;;;9.32;3.85;;;15.30;99.90;;;;;;5135986;27;20088;-48
2023/07/02 03:04:30;;;;;;;11.00;3.38;;;15.40;99.90;;;;;;5135852;27;20101;-48
2023/07/02 03:06:56;;;;;;;11.35;3.75;;;15.30;99.90;;;;;;5135924;27;20046;-48
2023/07/02 03:09:22;;;;;;;10.70;2.83;;;15.30;99.90;;;;;;5135806;27;20051;-48
2023/07/02 03:11:48;;;;;;;7.60;2.95;;;15.30;99.90;;;;;;5135476;27;20487;-48
2023/07/02 03:14:17;;;;;;;12.43;3.63;;;15.30;99.90;;;;;;5135620;27;20047;-49
2023/07/02 03:16:45;;;;;;;13.93;3.67;;;15.30;99.90;;;;;;5135608;27;20043;-48
2023/07/02 03:19:10;;;;;;;11.63;3.75;;;15.30;99.90;;;;;;5135092;27;20051;-48
2023/07/02 03:21:36;;;;;;;13.10;3.08;;;15.30;99.90;;;;;;5135497;27;20211;-48
2023/07/02 03:24:02;;;;;;;9.90;3.55;;;15.30;99.90;;;;;;5135560;27;20045;-48
2023/07/02 03:26:27;;;;;;;10.18;3.38;;;15.30;99.90;;;;;;5135420;27;20117;-47
2023/07/02 03:28:53;;;;;;;12.10;3.20;;;15.20;99.90;;;;;;5135431;27;20062;-47
2023/07/02 03:31:19;;;;;;;8.43;2.70;;;15.20;99.90;;;;;;5117637;27;20051;-48
2023/07/02 03:33:44;;;;;;;13.73;4.00;;;15.20;99.90;;;;;;5117259;27;20281;-48
2023/07/02 03:36:10;;;;;;;11.77;3.60;;;15.20;99.90;;;;;;5135494;27;20054;-48
2023/07/02 03:38:36;;;;;;;9.53;3.43;;;15.20;99.90;;;;;;5116959;27;20047;-50
2023/07/02 03:41:01;;;;;;;12.50;4.07;;;15.20;99.90;;;;;;5116860;27;20304;-48
2023/07/02 03:43:27;;;;;;;13.45;3.65;;;15.20;99.90;;;;;;5135139;27;20570;-48
2023/07/02 03:45:53;;;;;;;13.60;3.30;;;15.20;99.90;;;;;;5134867;27;20039;-51
2023/07/02 03:48:19;;;;;;;11.98;4.38;;;15.20;99.90;;;;;;5135544;27;20284;-47
2023/07/02 03:50:44;;;;;;;12.70;3.13;;;15.20;99.90;;;;;;5116729;27;20119;-48
2023/07/02 03:53:10;;;;;;;9.37;3.10;;;15.20;99.90;;;;;;5135054;27;20757;-47
2023/07/02 03:55:36;;;;;;;10.57;3.58;;;15.20;99.90;;;;;;5134744;27;20058;-47
2023/07/02 03:58:02;;;;;;;9.23;2.90;;;15.20;99.90;;;;;;5134918;27;20098;-49
2023/07/02 04:00:28;;;;;;;12.10;3.30;;;15.20;99.90;;;;;;5117047;27;20168;-48
2023/07/02 04:02:53;;;;;;;9.68;3.20;;;15.30;99.90;;;;;;5134822;27;20043;-49
2023/07/02 04:05:20;;;;;;;8.40;3.03;;;15.30;99.90;;;;;;5116618;27;20043;-49
2023/07/02 04:07:45;;;;;;;12.80;3.75;;;15.20;99.90;;;;;;5134836;27;20038;-48
2023/07/02 04:10:11;;;;;;;13.38;3.38;;;15.30;99.90;;;;;;5134765;27;20511;-51
2023/07/02 04:12:37;;;;;;;8.97;2.70;;;15.30;99.90;;;;;;5135106;27;20047;-49
2023/07/02 04:15:03;;;;;;;10.20;3.45;;;15.30;99.90;;;;;;5134679;27;20104;-49
2023/07/02 04:17:29;;;;;;;8.70;3.40;;;15.30;99.90;;;;;;5134667;27;20456;-48
2023/07/02 04:19:55;;;;;;;12.90;3.40;;;15.30;99.90;;;;;;5134603;27;20035;-49
2023/07/02 04:22:20;;;;;;;10.98;3.50;;;15.30;99.90;;;;;;5116206;28;20086;-48
2023/07/02 04:24:48;;;;;;;10.83;3.43;;;15.30;99.90;;;;;;5134507;27;20069;-47
2023/07/02 04:27:17;;;;;;;11.30;2.65;;;15.30;99.90;;;;;;5134976;28;20283;-48
2023/07/02 04:29:44;;;;;;;14.43;3.20;;;15.30;99.90;;;;;;5134532;28;20123;-48
2023/07/02 04:32:09;;;;;;;15.68;3.85;;;15.40;99.90;;;;;;5136774;27;20050;-47
2023/07/02 04:34:36;;;;;;;11.68;3.28;;;15.40;99.90;;;;;;5138710;27;20064;-49
2023/07/02 04:37:05;;;;;;;7.80;2.97;;;15.40;99.90;;;;;;5138721;27;20054;-48
2023/07/02 04:39:31;;;;;;;9.55;3.30;;;15.40;99.90;;;;;;5138520;27;20046;-48
2023/07/02 04:41:57;;;;;;;8.30;2.92;;;15.40;99.90;;;;;;5138735;27;20039;-48
2023/07/02 04:44:29;;;;;;;10.85;3.35;;;15.40;99.90;;;;;;5120450;27;20476;-48
2023/07/02 04:46:56;;;;;;;11.57;3.15;;;15.40;99.90;;;;;;5138603;27;20047;-48
2023/07/02 04:49:22;;;;;;;11.35;3.25;;;15.40;99.90;;;;;;5138607;27;20120;-47
2023/07/02 04:51:48;;;;;;;8.93;2.95;;;15.40;99.90;;;;;;5138273;27;20039;-47
2023/07/02 04:54:13;;;;;;;10.90;2.90;;;15.40;99.90;;;;;;5138246;27;20051;-47
2023/07/02 04:56:39;;;;;;;8.68;2.67;;;15.40;99.90;;;;;;5138441;27;20156;-47
2023/07/02 04:59:05;;;;;;;9.97;3.10;;;15.40;99.90;;;;;;5138402;27;20099;-47
2023/07/02 05:01:30;;;;;;;14.73;4.70;;;15.50;99.90;;;;;;5138269;27;20651;-48
2023/07/02 05:03:56;;;;;;;8.87;2.60;;;15.50;99.90;;;;;;5138294;27;20466;-48
2023/07/02 05:06:21;;;;;;;10.10;2.50;;;15.50;99.90;;;;;;5138089;27;20390;-47
2023/07/02 05:08:47;;;;;;;12.17;3.53;;;15.50;99.90;;;;;;5138132;27;20045;-48
2023/07/02 05:11:13;;;;;;;9.80;2.53;;;15.60;99.90;;;;;;5119863;27;20047;-48
2023/07/02 05:13:38;;;;;;;10.63;2.63;;;15.60;99.90;;;;;;5138269;27;20292;-48
2023/07/02 05:16:04;;;;;;;9.00;2.50;;;15.70;99.90;;;;;;5138145;27;20803;-47
2023/07/02 05:18:30;;;;;;;9.23;2.40;;;15.80;99.90;;;;;;5137907;27;20062;-46
2023/07/02 05:20:55;;;;;;;7.53;2.50;;;16.10;99.90;;;;;;5137847;27;20047;-47
2023/07/02 05:23:21;;;;;;;7.78;2.28;;;16.40;99.90;;;;;;5137678;27;20433;-47
2023/07/02 05:25:47;;;;;;;8.85;2.38;;;16.60;99.90;;;;;;5137856;27;20051;-47
2023/07/02 05:28:12;;;;;;;10.07;2.53;;;16.70;99.90;;;;;;5137828;27;20043;-47
2023/07/02 05:30:38;;;;;;;7.65;2.78;;;16.60;99.90;;;;;;5119653;27;20437;-46
2023/07/02 05:33:04;;;;;;;9.13;2.47;;;16.60;99.90;;;;;;5137957;27;20043;-47
2023/07/02 05:35:29;;;;;;;6.70;2.05;;;16.70;99.90;;;;;;5137671;27;20055;-47
2023/07/02 05:37:55;;;;;;;11.38;2.42;;;16.70;99.90;;;;;;5119405;27;20051;-46
2023/07/02 05:40:21;;;;;;;9.82;2.22;;;16.70;99.90;;;;;;5137550;27;20045;-47
2023/07/02 05:42:46;;;;;;;6.07;2.17;;;16.60;99.90;;;;;;5137073;27;20047;-48
2023/07/02 05:45:12;;;;;;;10.07;2.40;;;16.50;99.90;;;;;;5137301;27;20367;-48
2023/07/02 05:47:41;;;;;;;7.43;2.03;;;16.50;99.90;;;;;;5137433;27;20281;-47
2023/07/02 05:50:07;;;;;;;11.23;2.88;;;16.50;99.90;;;;;;5137228;27;20100;-47
2023/07/02 05:52:33;;;;;;;6.38;1.98;;;16.60;99.90;;;;;;5118654;27;20128;-49
2023/07/02 05:54:59;;;;;;;6.32;2.40;;;16.60;99.90;;;;;;5137326;27;20051;-48
2023/07/02 05:57:24;;;;;;;7.35;2.45;;;16.50;99.90;;;;;;5119300;27;20107;-47
2023/07/02 05:59:50;;;;;;;9.88;2.83;;;16.50;99.90;;;;;;5137472;27;20146;-47
2023/07/02 06:02:16;;;;;;;8.05;2.55;;;16.50;99.90;;;;;;5137233;27;20475;-47
2023/07/02 06:04:41;;;;;;;10.02;2.00;;;16.60;99.90;;;;;;5136910;27;20051;-47
2023/07/02 06:07:07;;;;;;;5.07;2.17;;;16.60;99.90;;;;;;5118608;27;20065;-46
2023/07/02 06:09:33;;;;;;;6.70;2.17;;;16.60;99.90;;;;;;5137057;27;20359;-48
2023/07/02 06:11:58;;;;;;;6.00;2.13;;;16.70;99.90;;;;;;5101901;27;20284;-46
2023/07/02 06:14:25;;;;;;;6.85;2.63;;;16.70;99.90;;;;;;5136955;27;20061;-48
2023/07/02 06:16:52;;;;;;;9.65;3.00;;;16.70;99.90;;;;;;5118729;27;20484;-46
2023/07/02 06:19:18;;;;;;;7.72;2.00;;;16.70;99.90;;;;;;5136709;27;20080;-47
2023/07/02 06:21:43;;;;;;;8.13;2.53;;;16.70;99.90;;;;;;5136541;27;20444;-47
2023/07/02 06:24:09;;;;;;;7.70;2.08;;;16.70;99.90;;;;;;5136736;27;20072;-48
2023/07/02 06:26:35;;;;;;;10.10;2.63;;;16.70;99.90;;;;;;5136844;27;20047;-47
2023/07/02 06:29:00;;;;;;;8.52;2.22;;;16.80;99.90;;;;;;5136698;27;20096;-48
2023/07/02 06:31:26;;;;;;;8.80;1.90;;;16.80;99.90;;;;;;5136634;27;20100;-48
2023/07/02 06:33:52;;;;;;;5.22;1.90;;;16.90;99.90;;;;;;5136349;27;20039;-46
2023/07/02 06:36:19;;;;;;;8.38;2.55;;;17.00;99.90;;;;;;5136314;27;20043;-52
2023/07/02 06:38:45;;;;;;;10.88;2.53;;;17.10;99.90;;;;;;5136448;27;20535;-47
2023/07/02 06:41:10;;;;;;;8.70;2.38;;;17.10;99.90;;;;;;5136316;27;20121;-51
2023/07/02 06:43:36;;;;;;;9.52;1.88;;;17.20;99.90;;;;;;5136295;27;20130;-48
2023/07/02 06:46:02;;;;;;;6.95;1.67;;;17.20;99.90;;;;;;5136274;27;20049;-49
2023/07/02 06:48:28;;;;;;;2.95;1.10;;;17.20;99.90;;;;;;5136326;27;20118;-48
2023/07/02 06:50:53;;;;;;;5.88;1.58;;;17.20;99.90;;;;;;5136015;27;20130;-47
2023/07/02 06:53:19;;;;;;;6.13;1.58;;;17.10;99.90;;;;;;5135662;27;20098;-47
2023/07/02 06:55:44;;;;;;;8.38;1.95;;;17.10;99.90;;;;;;5117042;27;20043;-47
2023/07/02 06:58:10;;;;;;;7.50;1.70;;;17.10;99.90;;;;;;5136079;27;20043;-47
2023/07/02 07:00:36;;;;;;;5.30;1.57;;;17.20;99.90;;;;;;5117737;27;20451;-46
2023/07/02 07:03:05;;;;;;;5.00;1.65;;;17.30;99.90;;;;;;5135899;27;20295;-48
2023/07/02 07:05:31;;;;;;;4.38;1.17;;;17.30;99.90;;;;;;5135674;27;20039;-48
2023/07/02 07:07:58;;;;;;;9.27;1.85;;;17.30;99.90;;;;;;5135898;27;20084;-48
2023/07/02 07:10:24;;;;;;;7.05;2.00;;;17.40;99.90;;;;;;5117833;27;20050;-47
2023/07/02 07:12:49;;;;;;;9.85;2.58;;;17.40;99.90;;;;;;5135725;27;20039;-48
2023/07/02 07:15:15;;;;;;;6.20;1.50;;;17.50;99.90;;;;;;5135810;27;20445;-49
2023/07/02 07:17:41;;;;;;;5.43;1.20;;;17.60;99.90;;;;;;5135753;27;20391;-46
2023/07/02 07:20:07;;;;;;;3.88;1.15;;;17.70;99.90;;;;;;5135388;27;20394;-47
2023/07/02 07:22:34;;;;;;;5.57;1.13;;;17.70;99.90;;;;;;5136025;27;20043;-51
2023/07/02 07:25:00;;;;;;;5.68;1.30;;;17.80;99.90;;;;;;5117407;27;20054;-46
2023/07/02 07:27:25;;;;;;;3.13;1.00;;;17.80;99.90;;;;;;5135501;27;20043;-48
2023/07/02 07:29:51;;;;;;;4.55;1.10;;;18.00;99.90;;;;;;5135310;27;20050;-50
2023/07/02 07:32:16;;;;;;;6.90;1.13;;;18.20;99.90;;;;;;5117246;27;20072;-46
2023/07/02 07:34:42;;;;;;;4.20;1.10;;;18.30;99.90;;;;;;5135298;27;20045;-49
2023/07/02 07:37:08;;;;;;;6.93;1.50;;;18.30;99.90;;;;;;5135710;27;20397;-47
2023/07/02 07:39:34;;;;;;;4.93;1.00;;;18.30;99.90;;;;;;5135290;27;20087;-48
2023/07/02 07:41:59;;;;;;;7.45;1.10;;;18.30;99.90;;;;;;5135166;27;20176;-46
2023/07/02 07:44:28;;;;;;;4.50;0.90;;;18.30;99.90;;;;;;5135012;27;20087;-49
2023/07/02 07:46:57;;;;;;;5.60;1.05;;;18.30;99.90;;;;;;5134822;27;20096;-47
2023/07/02 07:49:23;;;;;;;4.18;1.00;;;18.30;99.90;;;;;;5134856;27;20043;-49
2023/07/02 07:51:49;;;;;;;6.28;1.40;;;18.20;99.90;;;;;;5134663;27;20176;-47
2023/07/02 07:54:14;;;;;;;4.57;1.10;;;18.20;99.90;;;;;;5134827;27;20054;-46
2023/07/02 07:56:42;;;;;;;4.78;1.30;;;18.20;99.90;;;;;;5116892;27;20074;-46
2023/07/02 07:59:08;;;;;;;4.75;0.95;;;18.20;99.90;;;;;;5135088;27;20122;-46
2023/07/02 08:01:34;;;;;;;3.85;0.98;;;18.20;99.90;;;;;;5134738;27;20126;-47
2023/07/02 08:03:59;;;;;;;3.75;1.00;;;18.20;99.90;;;;;;5134589;27;20487;-48
2023/07/02 08:06:25;;;;;;;4.35;1.02;;;18.20;99.90;;;;;;5116459;27;20100;-51
2023/07/02 08:08:51;;;;;;;2.67;0.80;;;18.20;99.90;;;;;;5116834;27;20468;-48
2023/07/02 08:11:16;;;;;;;4.03;0.77;;;18.20;99.90;;;;;;5134677;27;20047;-49
2023/07/02 08:13:42;;;;;;;6.82;1.17;;;18.20;99.90;;;;;;5134624;27;20039;-46
2023/07/02 08:16:09;;;;;;;4.25;1.00;;;18.20;99.90;;;;;;5134989;27;20200;-47
2023/07/02 08:18:35;;;;;;;5.30;1.17;;;18.20;99.90;;;;;;5134389;27;20051;-46
2023/07/02 08:21:01;;;;;;;4.20;1.10;;;18.10;99.90;;;;;;5134959;27;20096;-48
2023/07/02 08:23:26;;;;;;;6.00;1.50;;;18.00;99.90;;;;;;5134638;28;20058;-47
2023/07/02 08:25:52;;;;;;;3.40;0.95;;;17.90;99.90;;;;;;5134533;27;20054;-49
2023/07/02 08:28:18;;;;;;;3.72;0.80;;;17.80;99.90;;;;;;5134480;27;20440;-46
2023/07/02 08:30:43;;;;;;;4.07;0.90;;;17.70;99.90;;;;;;5134327;28;20119;-48
2023/07/02 08:33:09;;;;;;;4.40;1.08;;;17.60;99.90;;;;;;5134376;28;20046;-49
2023/07/02 08:35:35;;;;;;;4.35;1.35;;;17.40;99.90;;;;;;5134578;28;20065;-48
2023/07/02 08:38:01;;;;;;;4.55;1.40;;;17.30;99.90;;;;;;5134513;28;20047;-52
2023/07/02 08:40:28;;;;;;;5.28;1.50;;;17.10;99.90;;;;;;5115925;28;20054;-48
2023/07/02 08:42:55;;;;;;;5.53;1.33;;;17.00;99.90;;;;;;5134401;28;20107;-48
2023/07/02 08:45:25;;;;;;;9.82;1.70;;;16.90;99.90;;;;;;5134275;28;20407;-47
2023/07/02 08:47:51;;;;;;;4.55;1.42;;;16.90;99.90;;;;;;5134144;28;20419;-49
2023/07/02 08:50:16;;;;;;;7.00;1.80;;;17.00;99.90;;;;;;5134422;28;20043;-50
2023/07/02 08:52:44;;;;;;;7.75;1.70;;;17.00;99.90;;;;;;5115796;28;20085;-47
2023/07/02 08:55:10;;;;;;;7.13;2.03;;;17.10;99.90;;;;;;5134287;28;20164;-47
2023/07/02 08:57:36;;;;;;;5.32;1.40;;;17.20;99.90;;;;;;5134228;28;20145;-47
2023/07/02 09:00:09;;;;;;;8.30;2.05;;;17.30;99.90;;;;;;5134032;28;20506;-49
2023/07/02 09:02:35;;;;;;;4.65;1.50;;;17.40;99.90;;;;;;5134296;28;20047;-46
2023/07/02 09:05:01;;;;;;;5.82;1.75;;;17.40;99.90;;;;;;5134204;28;20066;-47
2023/07/02 09:07:27;;;;;;;7.13;1.95;;;17.40;99.90;;;;;;5115932;28;20058;-50
2023/07/02 09:09:53;;;;;;;5.05;1.38;;;17.50;99.90;;;;;;5116053;28;20047;-47
2023/07/02 09:12:26;;;;;;;3.58;1.38;;;17.60;99.90;;;;;;5134302;28;20047;-48
2023/07/02 09:14:57;;;;;;;3.17;1.00;;;17.70;99.90;;;;;;5133928;28;20487;-49
2023/07/02 09:17:27;;;;;;;6.05;1.45;;;17.80;99.90;;;;;;5134829;27;20411;-48
2023/07/02 09:19:53;;;;;;;5.88;1.17;;;17.90;99.90;;;;;;5137894;27;20062;-48
2023/07/02 09:22:19;;;;;;;4.28;1.10;;;17.90;99.90;;;;;;5119721;27;20043;-46
2023/07/02 09:24:57;;;;;;;4.28;1.10;;;18.00;99.90;;;;;;5138035;27;20039;-47
2023/07/02 09:27:41;;;;;;;2.33;0.73;;;18.10;99.90;;;;;;5119605;27;20066;-48
2023/07/02 09:30:13;;;;;;;4.05;1.00;;;18.10;99.90;;;;;;5137909;27;20510;-49
2023/07/02 09:32:40;;;;;;;4.00;0.90;;;18.10;99.90;;;;;;5138033;27;20047;-50
2023/07/02 09:35:06;;;;;;;4.63;0.80;;;18.20;99.90;;;;;;5137821;27;20050;-47
2023/07/02 09:37:32;;;;;;;5.13;0.60;;;18.20;99.90;;;;;;5119731;27;20039;-49
2023/07/02 09:39:58;;;;;;;2.97;0.90;;;18.20;99.90;;;;;;5137440;27;20395;-46
2023/07/02 09:42:28;;;;;;;5.75;0.80;;;18.30;99.90;;;;;;5137579;27;20075;-53
2023/07/02 09:44:58;;;;;;;5.00;0.93;;;18.40;99.90;;;;;;5137821;27;20050;-48
2023/07/02 09:47:25;;;;;;;3.50;1.42;;;18.50;99.90;;;;;;5119736;27;20051;-54
2023/07/02 09:49:57;;;;;;;3.78;0.75;;;18.50;99.90;;;;;;5137281;27;20095;-49
2023/07/02 09:52:24;;;;;;;3.60;1.02;;;18.60;99.90;;;;;;5137011;27;20059;-54
2023/07/02 09:54:49;;;;;;;4.97;1.15;;;18.60;99.90;;;;;;5137782;27;20047;-49
2023/07/02 09:57:16;;;;;;;3.03;0.63;;;18.70;99.90;;;;;;5137274;27;20039;-49
2023/07/02 09:59:42;;;;;;;4.00;0.85;;;18.70;99.90;;;;;;5137219;27;20051;-48
2023/07/02 10:02:12;;;;;;;;;;;18.70;99.90;;;;;;5137390;27;20054;-48
2023/07/02 10:04:45;;;;;;;5.18;0.82;;;18.80;99.90;;;;;;5137218;27;20018;-48
2023/07/02 10:07:12;;;;;;;3.70;0.80;;;18.90;99.90;;;;;;5137145;27;20051;-49
2023/07/02 10:09:41;;;;;;;5.07;1.10;;;18.80;99.90;;;;;;5136809;27;20407;-47
2023/07/02 10:12:29;;;;;;;3.00;0.80;;;18.80;99.90;;;;;;5136933;27;20078;-49
2023/07/02 10:14:56;;;;;;;4.15;0.90;;;18.80;99.90;;;;;;5136865;27;20051;-48
2023/07/02 10:17:37;;;;;;;3.25;1.05;;;18.90;99.90;;;;;;5118574;27;20047;-48
2023/07/02 10:20:06;;;;;;;3.65;1.08;;;18.90;99.90;;;;;;5136947;27;20086;-48
2023/07/02 10:22:43;;;;;;;3.33;0.70;;;19.00;99.90;;;;;;5136787;27;20047;-47
2023/07/02 10:25:09;;;;;;;5.70;1.08;;;19.00;99.90;;;;;;5136884;27;20126;-47
2023/07/02 10:27:40;;;;;;;3.17;0.70;;;19.10;99.90;;;;;;5118551;27;20550;-48
2023/07/02 10:30:07;;;;;;;4.40;1.30;;;19.20;99.90;;;;;;5135083;27;20047;-51
2023/07/02 10:32:34;;;;;;;5.25;0.98;;;19.20;99.90;;;;;;5136610;27;20047;-48
2023/07/02 10:35:02;;;;;;;6.22;1.13;;;19.30;99.90;;;;;;5118574;27;20047;-50
2023/07/02 10:37:36;;;;;;;5.78;1.30;;;19.30;99.90;;;;;;5136449;27;20047;-48
2023/07/02 10:40:07;;;;;;;3.63;0.90;;;19.40;99.90;;;;;;5136319;27;20043;-49
2023/07/02 10:42:33;;;;;;;4.07;1.08;;;19.50;99.90;;;;;;5136342;27;20039;-47
2023/07/02 10:44:59;;;;;;;2.90;0.73;;;19.60;99.90;;;;;;5136345;27;20086;-48
2023/07/02 10:47:25;;;;;;;5.57;0.88;;;19.50;99.90;;;;;;5136285;27;20086;-48
2023/07/02 10:49:51;;;;;;;3.20;0.80;;;19.50;99.90;;;;;;5136596;27;20126;-49
2023/07/02 10:52:17;;;;;;;3.35;0.82;;;19.40;99.90;;;;;;5136158;27;20554;-48
2023/07/02 10:54:44;;;;;;;2.85;0.68;;;19.40;99.90;;;;;;5136183;27;20047;-48
2023/07/02 10:57:12;;;;;;;4.80;0.90;;;19.50;99.90;;;;;;5136158;27;20054;-48
2023/07/02 10:59:38;;;;;;;4.07;0.93;;;19.50;99.90;;;;;;5136075;27;20043;-47
2023/07/02 11:02:04;;;;;;;4.20;1.00;;;19.50;99.90;;;;;;5135987;27;20563;-47
2023/07/02 11:04:31;;;;;;;4.10;0.90;;;19.50;99.90;;;;;;5135950;27;20043;-48
2023/07/02 11:06:57;;;;;;;3.75;0.90;;;19.50;99.90;;;;;;5135897;27;20076;-47
2023/07/02 11:09:24;;;;;;;2.88;1.10;;;19.50;99.90;;;;;;5135794;27;20042;-49
2023/07/02 11:11:57;;;;;;;4.82;1.27;;;19.30;99.90;;;;;;5135576;27;20073;-47
2023/07/02 11:14:31;;;;;;;1.55;0.60;;;19.20;99.90;;;;;;5117408;27;20126;-51
2023/07/02 11:16:58;;;;;;;3.17;0.80;;;19.10;99.90;;;;;;5135605;27;20511;-49
2023/07/02 11:19:25;;;;;;;2.83;0.88;;;19.10;99.90;;;;;;5135646;27;20043;-49
2023/07/02 11:21:51;;;;;;;;;;;19.00;99.90;;;;;;5135979;27;20043;-50
2023/07/02 11:24:36;;;;;;;2.63;0.77;;;19.00;99.90;;;;;;5135343;27;19923;-47
2023/07/02 11:27:03;;;;;;;6.88;1.30;;;19.00;99.90;;;;;;5135476;27;20781;-47
2023/07/02 11:29:30;;;;;;;4.00;1.00;;;19.00;99.90;;;;;;5135416;27;20050;-54
2023/07/02 11:32:11;;;;;;;;;;;19.20;99.90;;;;;;5135852;27;20083;-48
2023/07/02 11:34:38;;;;;;;4.07;1.17;;;19.50;99.90;;;;;;5117185;27;19969;-48
2023/07/02 11:37:05;;;;;;;3.30;0.80;;;19.80;99.90;;;;;;5135329;27;20089;-47
2023/07/02 11:39:31;;;;;;;3.42;0.70;;;19.80;99.90;;;;;;5135290;27;20078;-47
2023/07/02 11:41:57;;;;;;;;;;;19.80;99.90;;;;;;5135081;27;20039;-49
2023/07/02 11:44:23;;;;;;;2.53;0.98;;;19.70;99.90;;;;;;5135426;27;19926;-48
2023/07/02 11:46:48;;;;;;;2.63;0.90;;;19.50;99.90;;;;;;5135069;27;20488;-48
2023/07/02 11:49:15;;;;;;;6.53;1.33;;;19.40;99.90;;;;;;5135004;27;20047;-49
2023/07/02 11:51:41;;;;;;;;;;;19.30;99.90;;;;;;5135465;27;20039;-47
2023/07/02 11:54:07;;;;;;;3.35;1.10;;;19.10;99.90;;;;;;5134858;27;19985;-50
2023/07/02 11:56:33;;;;;;;;;;;19.00;99.90;;;;;;5135375;27;20100;-47
2023/07/02 11:58:59;;;;;;;2.80;1.10;;;19.00;99.90;;;;;;5134852;27;19919;-48
2023/07/02 12:01:25;;;;;;;4.35;0.82;;;18.90;99.90;;;;;;5134693;27;20066;-47
2023/07/02 12:03:51;;;;;;;4.10;0.70;;;18.80;99.90;;;;;;5134469;27;20051;-48
2023/07/02 12:06:17;;;;;;;3.83;1.13;;;18.80;99.90;;;;;;5134915;27;20046;-48
2023/07/02 12:08:42;;;;;;;4.30;1.10;;;18.80;99.90;;;;;;5135085;27;20522;-47
2023/07/02 12:11:08;;;;;;;3.55;0.82;;;19.00;99.90;;;;;;5116496;27;20047;-48
2023/07/02 12:13:34;;;;;;;2.92;0.70;;;19.00;99.90;;;;;;5116564;27;20043;-49
2023/07/02 12:16:00;;;;;;;3.45;0.90;;;19.00;99.90;;;;;;5134782;27;20082;-48
2023/07/02 12:18:25;;;;;;;5.00;0.98;;;18.90;99.90;;;;;;5134456;27;20043;-46
2023/07/02 12:20:51;;;;;;;2.65;0.98;;;18.90;99.90;;;;;;5134604;27;20046;-47
2023/07/02 12:23:17;;;;;;;6.03;0.90;;;19.00;99.90;;;;;;5134707;27;20142;-48
2023/07/02 12:25:42;;;;;;;3.88;1.17;;;19.10;99.90;;;;;;5134939;27;20499;-46
2023/07/02 12:28:08;;;;;;;3.75;0.80;;;19.40;99.90;;;;;;5134631;27;20126;-54
2023/07/02 12:30:34;;;;;;;5.40;0.90;;;19.70;99.90;;;;;;5116162;28;20545;-51
2023/07/02 12:32:59;;;;;;;4.70;0.90;;;20.00;99.60;;;;;;5134369;28;20045;-52
2023/07/02 12:35:25;;;;;;;4.40;0.90;;;20.10;99.10;;;;;;5134558;28;20430;-48
2023/07/02 12:37:54;;;;;;;3.65;1.30;;;20.20;97.90;;;;;;5134760;28;20125;-52
2023/07/02 12:40:20;;;;;;;3.42;0.90;;;20.30;97.90;;;;;;5134630;28;20046;-49
2023/07/02 12:42:47;;;;;;;3.50;1.00;;;20.50;97.80;;;;;;5134402;28;20047;-48